Etusivu
METAR-TAF:

METAR-TAF

Lentoasemat :

Enontekiö, Suomi

Enontekiön lentoasema

Leveyspiiri: 68-21-52N, Pituuspiiri: 023-25-39E, korkeus merenpinnasta: 308 m

Tämänhetkinen sää

Tämä raportti tehtiin 15 minuuttia sitten, kello 09.50 UTC
Tuuli 4 kn pohjoisesta, vaihdellen pohjoisen/luoteen ja koillisen välillä
Lämpötila 2°C
Kosteus 69%
Ilmanpaine 1018 hPa
Näkyvyys 10 km tai enemmän
Pilvistä 2700 ft:n korkeudessa
heikkoja lumikuuroja

METAR: EFET 270950Z AUTO 36004KT 330V040 9999 -SHSN OVC027 02/M03 Q1018

Aika: 13:05 (10:05 UTC)


TAF: puuttuu

Säähavainnot ja -ennusteet yli 4000 lentoasemalta (METAR- ja TAF-raportit).

Käytössä olevat sääasemat on merkitty karttaan keltaisilla ja punaisilla pisteillä.

Aseta hiiri pisteen päälle nähdäksesi sääaseman nimen.

Klikkaa sitten nähdäksesi säähavainnot ja -ennusteet.

Kartan vaihtaminen: klikkaa mustalla rastilla varustettuja vihreitä pisteitä, niin voit zoomata sisään; viivalla varustettua vihreää pistettä, niin voit zoomata ulos tai vihreitä nuolia, niin pääset viereisille kartoille.


METAR-TAF: